createdAt,value
2019-03-31T00:00:16.799Z,42.80
2019-03-31T00:01:16.822Z,42.50
2019-03-31T00:02:16.859Z,42.80
2019-03-31T00:03:17.034Z,43.50
2019-03-31T00:04:16.852Z,42.60
2019-03-31T00:05:16.871Z,43.00
2019-03-31T00:06:16.882Z,42.60
2019-03-31T00:07:16.887Z,43.00
2019-03-31T00:08:16.899Z,44.00
2019-03-31T00:09:16.930Z,42.30
2019-03-31T00:10:17.028Z,43.60
2019-03-31T00:11:16.939Z,45.40
2019-03-31T00:12:17.367Z,46.30
2019-03-31T00:13:16.969Z,47.40
2019-03-31T00:14:16.986Z,46.40
2019-03-31T00:15:16.992Z,47.10
2019-03-31T00:16:17.010Z,45.10
2019-03-31T00:17:17.022Z,45.50
2019-03-31T00:18:17.034Z,44.80
2019-03-31T00:19:17.061Z,45.30
2019-03-31T00:20:17.051Z,44.70
2019-03-31T00:21:17.062Z,45.60
2019-03-31T00:22:17.078Z,44.10
2019-03-31T00:23:17.098Z,45.90
2019-03-31T00:24:17.112Z,45.20
2019-03-31T00:25:17.127Z,46.20
2019-03-31T00:26:17.133Z,45.80
2019-03-31T00:27:17.139Z,47.10
2019-03-31T00:28:17.168Z,45.60
2019-03-31T00:29:17.173Z,45.80
2019-03-31T00:30:17.180Z,46.50
2019-03-31T00:31:22.336Z,45.80
2019-03-31T00:32:17.230Z,46.90
2019-03-31T00:33:17.220Z,47.30
2019-03-31T00:34:17.287Z,46.90
2019-03-31T00:35:17.562Z,47.20
2019-03-31T00:36:17.274Z,47.00
2019-03-31T00:37:17.285Z,48.00
2019-03-31T00:38:17.286Z,46.40
2019-03-31T00:39:17.292Z,46.40
2019-03-31T00:40:17.320Z,47.40
2019-03-31T00:41:17.383Z,46.10
2019-03-31T00:45:17.372Z,46.50
2019-03-31T00:46:17.379Z,48.20
2019-03-31T00:47:17.393Z,47.00
2019-03-31T00:48:17.414Z,47.00
2019-03-31T00:49:17.433Z,46.40
2019-03-31T00:50:17.435Z,47.40
2019-03-31T00:51:17.450Z,47.70
2019-03-31T00:52:17.457Z,47.50
2019-03-31T00:53:17.472Z,47.20
2019-03-31T00:54:17.488Z,46.60
2019-03-31T00:55:17.499Z,48.30
2019-03-31T00:56:17.514Z,48.30
2019-03-31T00:57:17.518Z,47.80
2019-03-31T00:58:17.542Z,47.60
2019-03-31T00:59:17.546Z,48.50
2019-03-31T01:00:17.557Z,47.80
2019-03-31T01:01:17.568Z,49.10
2019-03-31T01:02:17.581Z,49.80
2019-03-31T01:03:17.604Z,49.30
2019-03-31T01:04:17.612Z,48.20
2019-03-31T01:05:17.625Z,48.00
2019-03-31T01:06:17.642Z,48.40
2019-03-31T01:07:17.721Z,48.00
2019-03-31T01:08:17.666Z,50.00
2019-03-31T01:09:17.678Z,49.20
2019-03-31T01:10:17.694Z,49.40
2019-03-31T01:11:17.697Z,49.90
2019-03-31T01:12:17.707Z,49.20
2019-03-31T01:13:17.732Z,48.50
2019-03-31T01:14:17.732Z,50.10
2019-03-31T01:15:17.748Z,50.10
2019-03-31T01:16:17.769Z,50.50
2019-03-31T01:17:19.075Z,51.10
2019-03-31T01:18:17.792Z,52.10
2019-03-31T01:19:17.988Z,52.20
2019-03-31T01:20:17.851Z,51.70
2019-03-31T01:21:17.817Z,51.50
2019-03-31T01:22:17.827Z,53.10
2019-03-31T01:23:17.847Z,51.80
2019-03-31T01:24:17.856Z,53.80
2019-03-31T01:25:17.870Z,52.70
2019-03-31T01:26:17.882Z,53.20
2019-03-31T01:27:17.892Z,53.60
2019-03-31T01:28:17.909Z,55.00
2019-03-31T01:29:17.918Z,54.00
2019-03-31T01:30:17.934Z,52.20
2019-03-31T01:31:17.945Z,53.90
2019-03-31T01:32:17.959Z,51.50
2019-03-31T01:33:17.974Z,54.20
2019-03-31T01:34:17.993Z,53.20
2019-03-31T01:35:17.988Z,56.00
2019-03-31T01:36:18.059Z,53.30
2019-03-31T01:37:20.173Z,54.00
2019-03-31T01:38:18.045Z,53.10
2019-03-31T01:39:18.064Z,53.10
2019-03-31T01:40:18.061Z,53.50
2019-03-31T01:41:18.065Z,54.90
2019-03-31T01:42:18.140Z,53.90
2019-03-31T01:43:18.193Z,54.40
2019-03-31T01:44:18.114Z,54.10
2019-03-31T01:46:18.211Z,53.90
2019-03-31T01:47:18.216Z,55.30
2019-03-31T01:48:18.151Z,53.30
2019-03-31T01:49:18.169Z,53.60
2019-03-31T01:50:18.184Z,53.70
2019-03-31T01:51:18.200Z,53.60
2019-03-31T01:52:18.209Z,54.30
2019-03-31T01:53:18.219Z,55.10
2019-03-31T01:54:18.233Z,54.10
2019-03-31T01:55:18.238Z,56.30
2019-03-31T01:56:18.254Z,54.50
2019-03-31T01:57:18.271Z,55.10
2019-03-31T01:58:18.283Z,55.20
2019-03-31T01:59:18.295Z,55.80
2019-03-31T02:00:18.302Z,55.70
2019-03-31T02:01:18.314Z,56.10
2019-03-31T02:02:18.327Z,54.90
2019-03-31T02:03:18.377Z,54.10
2019-03-31T02:05:18.363Z,56.30
2019-03-31T02:06:18.547Z,55.60
2019-03-31T02:07:18.419Z,57.70
2019-03-31T02:08:18.399Z,55.70
2019-03-31T02:09:18.410Z,57.50
2019-03-31T02:10:18.438Z,58.30
2019-03-31T02:11:18.670Z,56.00
2019-03-31T02:12:18.458Z,57.20
2019-03-31T02:13:18.463Z,57.00
2019-03-31T02:14:18.479Z,56.70
2019-03-31T02:15:18.494Z,57.30
2019-03-31T02:16:18.513Z,57.40
2019-03-31T02:17:18.873Z,58.90
2019-03-31T02:18:18.537Z,58.90
2019-03-31T02:19:18.534Z,58.50
2019-03-31T02:20:18.554Z,59.60
2019-03-31T02:21:18.559Z,57.90
2019-03-31T02:22:18.573Z,58.50
2019-03-31T02:23:18.585Z,59.60
2019-03-31T02:24:18.596Z,58.80
2019-03-31T02:25:18.616Z,59.40
2019-03-31T02:26:18.622Z,58.00
2019-03-31T02:27:18.636Z,58.80
2019-03-31T02:28:18.654Z,58.10
2019-03-31T02:29:18.665Z,57.70
2019-03-31T02:30:18.679Z,58.80
2019-03-31T02:31:18.703Z,59.00
2019-03-31T02:32:24.310Z,58.60
2019-03-31T02:33:18.717Z,57.50
2019-03-31T02:34:18.723Z,58.20
2019-03-31T02:35:18.746Z,57.50
2019-03-31T02:36:18.745Z,58.60
2019-03-31T02:37:18.758Z,58.30
2019-03-31T02:38:18.779Z,59.30
2019-03-31T02:39:18.788Z,59.60
2019-03-31T02:40:18.793Z,58.60
2019-03-31T02:41:18.962Z,57.70
2019-03-31T02:42:19.323Z,59.20
2019-03-31T02:43:18.886Z,58.30
2019-03-31T02:44:18.863Z,59.50
2019-03-31T02:45:18.861Z,58.10
2019-03-31T02:46:18.867Z,59.30
2019-03-31T02:47:18.960Z,59.50
2019-03-31T02:48:18.904Z,59.60
2019-03-31T02:49:18.948Z,59.10
2019-03-31T02:50:18.920Z,57.10
2019-03-31T02:51:18.930Z,58.20
2019-03-31T02:52:18.946Z,59.60
2019-03-31T02:53:18.957Z,59.80
2019-03-31T02:54:18.970Z,59.40
2019-03-31T02:55:18.993Z,59.50
2019-03-31T02:56:18.992Z,58.60
2019-03-31T02:57:19.008Z,60.50
2019-03-31T02:58:19.052Z,59.30
2019-03-31T02:59:19.038Z,59.40
2019-03-31T03:00:19.055Z,59.10
2019-03-31T03:01:19.095Z,60.10
2019-03-31T03:02:19.073Z,58.70
2019-03-31T03:03:19.080Z,58.40
2019-03-31T03:04:19.088Z,58.60
2019-03-31T03:05:20.369Z,58.80
2019-03-31T03:06:19.109Z,58.80
2019-03-31T03:07:19.125Z,58.90
2019-03-31T03:08:19.146Z,59.10
2019-03-31T03:09:19.146Z,57.10
2019-03-31T03:10:19.160Z,58.80
2019-03-31T03:11:19.179Z,59.30
2019-03-31T03:12:19.186Z,58.10
2019-03-31T03:13:19.201Z,57.80
2019-03-31T03:14:19.211Z,59.30
2019-03-31T03:15:19.259Z,57.90
2019-03-31T03:16:19.548Z,56.50
2019-03-31T03:17:19.258Z,56.30
2019-03-31T03:18:19.275Z,57.90
2019-03-31T03:19:19.278Z,56.40
2019-03-31T03:20:19.377Z,57.60
2019-03-31T03:21:23.688Z,56.80
2019-03-31T03:22:19.307Z,57.10
2019-03-31T03:23:19.322Z,57.60
2019-03-31T03:24:19.330Z,55.60
2019-03-31T03:25:19.342Z,56.90
2019-03-31T03:26:19.362Z,55.90
2019-03-31T03:27:19.367Z,55.60
2019-03-31T03:28:19.381Z,55.30
2019-03-31T03:29:19.414Z,56.20
2019-03-31T03:30:19.480Z,55.20
2019-03-31T03:31:19.476Z,56.60
2019-03-31T03:32:19.443Z,56.20
2019-03-31T03:34:19.452Z,54.20
2019-03-31T03:35:19.515Z,54.90
2019-03-31T03:36:19.488Z,55.70
2019-03-31T03:37:19.489Z,54.30
2019-03-31T03:38:19.503Z,53.60
2019-03-31T03:39:19.512Z,52.50
2019-03-31T03:40:19.526Z,53.50
2019-03-31T03:41:19.531Z,54.20
2019-03-31T03:42:19.545Z,53.20
2019-03-31T03:43:19.557Z,50.70
2019-03-31T03:44:19.585Z,54.50
2019-03-31T03:45:19.588Z,53.20
2019-03-31T03:46:19.695Z,52.90
2019-03-31T03:47:19.630Z,52.60
2019-03-31T03:48:19.793Z,54.00
2019-03-31T03:49:19.831Z,53.00
2019-03-31T03:50:19.689Z,54.20
2019-03-31T03:51:19.657Z,54.10
2019-03-31T03:52:19.688Z,52.20
2019-03-31T03:53:19.672Z,51.40
2019-03-31T03:54:19.686Z,52.00
2019-03-31T03:55:20.061Z,52.10
2019-03-31T03:56:19.714Z,51.20
2019-03-31T03:57:19.723Z,52.10
2019-03-31T03:58:19.744Z,51.20
2019-03-31T03:59:19.751Z,50.10
2019-03-31T04:00:19.766Z,49.90
2019-03-31T04:01:19.782Z,50.40
2019-03-31T04:02:19.785Z,48.80
2019-03-31T04:03:30.164Z,47.50
2019-03-31T04:04:19.816Z,46.90
2019-03-31T04:05:19.830Z,47.50
2019-03-31T04:06:19.828Z,47.90
2019-03-31T04:07:19.851Z,47.10
2019-03-31T04:08:19.957Z,46.70
2019-03-31T04:09:19.864Z,46.20
2019-03-31T04:10:19.873Z,44.80
2019-03-31T04:11:21.522Z,46.80
2019-03-31T04:12:19.933Z,44.70
2019-03-31T04:13:19.916Z,45.20
2019-03-31T04:14:19.922Z,45.80
2019-03-31T04:15:19.934Z,45.20
2019-03-31T04:16:19.943Z,44.90
2019-03-31T04:17:19.964Z,44.10
2019-03-31T04:18:19.996Z,44.40
2019-03-31T04:19:20.345Z,43.50
2019-03-31T04:20:20.059Z,42.10
2019-03-31T04:21:20.025Z,44.60
2019-03-31T04:22:20.018Z,42.50
2019-03-31T04:23:20.029Z,43.80
2019-03-31T04:24:20.046Z,43.30
2019-03-31T04:25:20.160Z,43.30
2019-03-31T04:26:20.064Z,43.00
2019-03-31T04:27:20.070Z,43.60
2019-03-31T04:28:20.097Z,42.40
2019-03-31T04:29:20.100Z,42.70
2019-03-31T04:30:20.107Z,42.30
2019-03-31T04:31:20.118Z,42.80
2019-03-31T04:32:20.129Z,43.40
2019-03-31T04:33:20.200Z,41.90
2019-03-31T04:34:20.169Z,41.70
2019-03-31T04:35:20.167Z,41.70
2019-03-31T04:36:20.179Z,41.50
2019-03-31T04:37:20.197Z,40.60
2019-03-31T04:38:20.200Z,39.80
2019-03-31T04:39:20.231Z,40.00
2019-03-31T04:40:20.232Z,39.60
2019-03-31T04:41:20.238Z,39.00
2019-03-31T04:42:20.246Z,40.10
2019-03-31T04:43:20.256Z,39.70
2019-03-31T04:44:20.271Z,39.10
2019-03-31T04:45:20.282Z,39.70
2019-03-31T04:46:20.293Z,39.00
2019-03-31T04:47:20.314Z,38.60
2019-03-31T04:50:20.652Z,36.50
2019-03-31T04:51:21.013Z,38.00
2019-03-31T04:52:20.612Z,37.00
2019-03-31T04:53:20.374Z,36.40
2019-03-31T04:54:20.385Z,37.00
2019-03-31T04:55:20.398Z,36.50
2019-03-31T04:57:20.829Z,38.30
2019-03-31T04:58:20.430Z,35.40
2019-03-31T04:59:20.439Z,36.60
2019-03-31T05:00:20.451Z,36.00
2019-03-31T05:01:20.465Z,35.50
2019-03-31T05:02:20.482Z,35.20
2019-03-31T05:03:20.484Z,35.50
2019-03-31T05:04:20.501Z,34.80
2019-03-31T05:05:20.510Z,35.80
2019-03-31T05:06:20.528Z,37.10
2019-03-31T05:07:20.542Z,37.40
2019-03-31T05:08:20.808Z,34.80
2019-03-31T05:09:20.619Z,35.30
2019-03-31T05:10:20.570Z,36.80
2019-03-31T05:11:20.581Z,36.20
2019-03-31T05:12:20.596Z,36.30
2019-03-31T05:13:20.736Z,35.50
2019-03-31T05:14:20.628Z,37.00
2019-03-31T05:15:20.630Z,36.00
2019-03-31T05:16:20.640Z,36.20
2019-03-31T05:17:20.686Z,34.90
2019-03-31T05:18:20.737Z,36.80
2019-03-31T05:19:20.977Z,36.00
2019-03-31T05:20:20.869Z,35.80
2019-03-31T05:21:20.710Z,35.90
2019-03-31T05:22:20.705Z,35.90
2019-03-31T05:23:20.716Z,36.60
2019-03-31T05:24:20.734Z,35.40
2019-03-31T05:25:20.740Z,36.50
2019-03-31T05:26:20.750Z,37.20
2019-03-31T05:27:20.771Z,36.00
2019-03-31T05:28:20.801Z,37.00
2019-03-31T05:29:20.837Z,36.70
2019-03-31T05:30:20.828Z,36.70
2019-03-31T05:31:20.823Z,36.50
2019-03-31T05:32:20.817Z,37.00
2019-03-31T05:33:20.837Z,37.50
2019-03-31T05:34:20.845Z,37.20
2019-03-31T05:36:20.868Z,37.10
2019-03-31T05:37:20.921Z,37.40
2019-03-31T05:38:21.144Z,36.30
2019-03-31T05:39:20.891Z,37.10
2019-03-31T05:40:20.903Z,36.20
2019-03-31T05:41:20.916Z,37.40
2019-03-31T05:42:20.934Z,39.30
2019-03-31T05:43:20.936Z,37.20
2019-03-31T05:44:20.953Z,36.40
2019-03-31T05:45:21.015Z,37.90
2019-03-31T05:46:21.182Z,36.90
2019-03-31T05:47:21.034Z,37.70
2019-03-31T05:48:21.067Z,37.70
2019-03-31T05:49:21.750Z,36.90
2019-03-31T05:50:21.072Z,38.10
2019-03-31T05:51:21.030Z,37.90
2019-03-31T05:52:21.086Z,38.50
2019-03-31T05:53:21.073Z,38.10
2019-03-31T05:54:21.060Z,38.50
2019-03-31T05:55:21.069Z,38.90
2019-03-31T05:56:21.087Z,36.70
2019-03-31T05:57:21.100Z,37.10
2019-03-31T05:58:21.113Z,35.70
2019-03-31T05:59:21.120Z,37.10
2019-03-31T06:00:21.137Z,36.60
2019-03-31T06:01:21.147Z,34.80
2019-03-31T06:02:21.218Z,35.30
2019-03-31T06:03:21.178Z,35.10
2019-03-31T06:04:32.600Z,35.00
2019-03-31T06:05:21.182Z,35.40
2019-03-31T06:06:21.195Z,34.90
2019-03-31T06:07:21.206Z,35.40
2019-03-31T06:08:21.215Z,35.00
2019-03-31T06:09:21.227Z,36.00
2019-03-31T06:10:21.238Z,35.80
2019-03-31T06:11:21.258Z,34.40
2019-03-31T06:12:21.258Z,36.00
2019-03-31T06:13:21.271Z,35.10
2019-03-31T06:14:21.283Z,34.70
2019-03-31T06:15:21.293Z,35.20
2019-03-31T06:16:21.303Z,35.30
2019-03-31T06:17:21.323Z,34.30
2019-03-31T06:18:21.358Z,34.40
2019-03-31T06:19:21.336Z,33.90
2019-03-31T06:20:21.348Z,34.10
2019-03-31T06:21:21.372Z,33.90
2019-03-31T06:22:21.579Z,34.20
2019-03-31T06:23:21.398Z,33.80
2019-03-31T06:24:21.395Z,33.70
2019-03-31T06:25:21.412Z,32.00
2019-03-31T06:26:21.418Z,33.60
2019-03-31T06:27:21.429Z,32.70
2019-03-31T06:28:21.898Z,32.00
2019-03-31T06:29:21.777Z,34.00
2019-03-31T06:30:21.468Z,32.30
2019-03-31T06:31:21.505Z,33.50
2019-03-31T06:32:21.486Z,32.90
2019-03-31T06:33:21.506Z,32.10
2019-03-31T06:34:21.513Z,31.60
2019-03-31T06:35:21.518Z,32.60
2019-03-31T06:36:21.538Z,33.40
2019-03-31T06:37:21.544Z,32.20
2019-03-31T06:38:21.555Z,33.50
2019-03-31T06:39:21.570Z,31.80
2019-03-31T06:40:21.579Z,33.70
2019-03-31T06:41:21.588Z,32.60
2019-03-31T06:42:21.602Z,32.70
2019-03-31T06:43:21.618Z,33.00
2019-03-31T06:44:21.625Z,32.50
2019-03-31T06:45:21.632Z,31.50
2019-03-31T06:46:21.715Z,31.80
2019-03-31T06:48:21.800Z,30.30
2019-03-31T06:49:21.679Z,31.60
2019-03-31T06:50:21.692Z,30.40
2019-03-31T06:51:21.703Z,31.30
2019-03-31T06:52:21.776Z,31.70
2019-03-31T06:53:21.747Z,32.50
2019-03-31T06:54:21.748Z,30.60
2019-03-31T06:55:21.746Z,31.70
2019-03-31T06:56:21.763Z,32.00
2019-03-31T06:58:21.792Z,32.00
2019-03-31T06:59:21.799Z,30.10
2019-03-31T07:00:21.803Z,29.00
2019-03-31T07:01:21.926Z,30.90
2019-03-31T07:02:21.828Z,30.70
2019-03-31T07:03:21.842Z,31.20
2019-03-31T07:04:21.888Z,29.70
2019-03-31T07:05:21.863Z,30.00
2019-03-31T07:06:21.927Z,30.10
2019-03-31T07:07:23.769Z,29.70
2019-03-31T07:08:21.903Z,30.50
2019-03-31T07:09:21.906Z,30.00
2019-03-31T07:10:21.919Z,29.70
2019-03-31T07:11:21.928Z,28.40
2019-03-31T07:12:21.944Z,29.40
2019-03-31T07:13:21.958Z,30.10
2019-03-31T07:14:21.970Z,28.80
2019-03-31T07:15:21.978Z,28.50
2019-03-31T07:16:21.987Z,29.20
2019-03-31T07:17:21.997Z,29.20
2019-03-31T07:18:22.030Z,28.40
2019-03-31T07:19:22.030Z,28.00
2019-03-31T07:20:22.032Z,29.10
2019-03-31T07:21:22.051Z,28.70
2019-03-31T07:22:24.389Z,27.30
2019-03-31T07:23:22.069Z,27.50
2019-03-31T07:24:22.077Z,28.40
2019-03-31T07:25:22.101Z,27.90
2019-03-31T07:26:22.134Z,27.40
2019-03-31T07:27:22.113Z,27.00
2019-03-31T07:28:22.141Z,25.70
2019-03-31T07:29:22.154Z,27.00
2019-03-31T07:30:22.155Z,27.00
2019-03-31T07:31:22.167Z,26.20
2019-03-31T07:32:22.181Z,26.30
2019-03-31T07:33:22.187Z,26.70
2019-03-31T07:34:22.209Z,25.40
2019-03-31T07:35:22.210Z,25.30
2019-03-31T07:36:22.222Z,26.50
2019-03-31T07:37:22.251Z,24.20
2019-03-31T07:38:22.492Z,23.10
2019-03-31T07:39:22.380Z,23.50
2019-03-31T07:40:22.592Z,24.70
2019-03-31T07:41:22.438Z,23.40
2019-03-31T07:42:22.327Z,23.60
2019-03-31T07:43:22.307Z,23.50
2019-03-31T07:44:22.319Z,22.70
2019-03-31T07:45:22.350Z,23.00
2019-03-31T07:46:22.342Z,21.60
2019-03-31T07:47:22.357Z,22.90
2019-03-31T07:48:22.373Z,22.50
2019-03-31T07:49:22.383Z,22.90
2019-03-31T07:50:22.392Z,22.40
2019-03-31T07:51:22.409Z,22.10
2019-03-31T07:52:22.416Z,22.40
2019-03-31T07:53:22.426Z,21.90
2019-03-31T07:54:22.443Z,22.30
2019-03-31T07:55:22.449Z,22.00
2019-03-31T07:56:22.467Z,21.70
2019-03-31T07:57:22.475Z,22.30
2019-03-31T07:58:22.495Z,22.60
2019-03-31T07:59:22.675Z,21.90
2019-03-31T08:00:22.570Z,22.00
2019-03-31T08:01:22.528Z,22.40
2019-03-31T08:02:22.548Z,21.60
2019-03-31T08:03:22.551Z,20.40
2019-03-31T08:04:22.573Z,21.50
2019-03-31T08:05:33.068Z,21.80
2019-03-31T08:06:22.615Z,22.20
2019-03-31T08:07:22.603Z,21.60
2019-03-31T08:08:22.613Z,21.70
2019-03-31T08:09:22.684Z,22.90
2019-03-31T08:10:22.636Z,22.10
2019-03-31T08:11:23.405Z,22.80
2019-03-31T08:12:23.215Z,21.60
2019-03-31T08:13:22.669Z,22.80
2019-03-31T08:14:22.682Z,21.80
2019-03-31T08:15:22.700Z,21.20
2019-03-31T08:16:22.708Z,21.70
2019-03-31T08:17:22.725Z,21.40
2019-03-31T08:18:22.743Z,21.90
2019-03-31T08:19:22.760Z,19.80
2019-03-31T08:20:22.757Z,20.20
2019-03-31T08:21:22.773Z,20.10
2019-03-31T08:22:22.788Z,20.30
2019-03-31T08:23:22.799Z,20.90
2019-03-31T08:24:22.815Z,19.60
2019-03-31T08:25:22.834Z,18.80
2019-03-31T08:26:22.833Z,18.30
2019-03-31T08:27:22.843Z,19.80
2019-03-31T08:28:22.855Z,19.50
2019-03-31T08:29:22.875Z,18.10
2019-03-31T08:30:22.903Z,17.40
2019-03-31T08:31:22.898Z,18.40
2019-03-31T08:32:22.906Z,19.10
2019-03-31T08:33:22.924Z,17.80
2019-03-31T08:34:22.952Z,17.40
2019-03-31T08:35:22.940Z,17.30
2019-03-31T08:36:22.970Z,16.20
2019-03-31T08:37:23.033Z,16.50
2019-03-31T08:38:24.518Z,15.40
2019-03-31T08:39:23.059Z,15.90
2019-03-31T08:40:23.016Z,14.50
2019-03-31T08:41:23.023Z,15.50
2019-03-31T08:42:23.081Z,14.10
2019-03-31T08:43:23.371Z,13.80
2019-03-31T08:44:23.066Z,12.80
2019-03-31T08:45:23.070Z,12.70
2019-03-31T08:46:23.083Z,13.40
2019-03-31T08:47:23.088Z,12.50
2019-03-31T08:48:23.101Z,12.30
2019-03-31T08:49:23.121Z,12.60
2019-03-31T08:50:23.125Z,11.90
2019-03-31T08:51:23.144Z,12.70
2019-03-31T08:52:23.158Z,12.40
2019-03-31T08:53:23.160Z,12.10
2019-03-31T08:54:23.178Z,13.10
2019-03-31T08:55:23.221Z,12.10
2019-03-31T08:56:23.202Z,11.80
2019-03-31T08:57:23.223Z,11.30
2019-03-31T08:58:23.229Z,11.60
2019-03-31T08:59:23.240Z,10.90
2019-03-31T09:00:23.254Z,11.50
2019-03-31T09:01:23.263Z,11.00
2019-03-31T09:02:23.341Z,10.30
2019-03-31T09:03:23.298Z,10.40
2019-03-31T09:04:23.338Z,10.30
2019-03-31T09:05:23.489Z,10.00
2019-03-31T09:06:23.320Z,11.30
2019-03-31T09:07:23.332Z,10.00
2019-03-31T09:08:23.410Z,10.20
2019-03-31T09:09:23.490Z,9.60
2019-03-31T09:10:24.041Z,10.10
2019-03-31T09:11:23.387Z,9.40
2019-03-31T09:12:23.395Z,9.80
2019-03-31T09:13:23.422Z,9.40
2019-03-31T09:14:23.433Z,9.70
2019-03-31T09:15:23.436Z,9.70
2019-03-31T09:16:23.454Z,9.50
2019-03-31T09:17:23.459Z,9.60
2019-03-31T09:18:23.486Z,9.10
2019-03-31T09:19:23.488Z,9.20
2019-03-31T09:20:23.513Z,8.90
2019-03-31T09:21:23.520Z,9.70
2019-03-31T09:22:23.632Z,9.70
2019-03-31T09:23:23.560Z,9.10
2019-03-31T09:24:23.586Z,9.80
2019-03-31T09:25:23.607Z,9.80
2019-03-31T09:26:23.715Z,9.70
2019-03-31T09:27:23.637Z,9.20
2019-03-31T09:28:23.599Z,9.60
2019-03-31T09:29:23.619Z,9.70
2019-03-31T09:30:23.642Z,9.50
2019-03-31T09:31:23.649Z,9.30
2019-03-31T09:32:23.662Z,9.50
2019-03-31T09:33:23.725Z,9.30
2019-03-31T09:34:24.041Z,9.00
2019-03-31T09:35:23.689Z,9.00
2019-03-31T09:36:23.701Z,9.00
2019-03-31T09:37:23.721Z,10.10
2019-03-31T09:38:23.734Z,9.10
2019-03-31T09:39:23.782Z,8.50
2019-03-31T09:40:23.754Z,9.30
2019-03-31T09:41:23.772Z,8.80
2019-03-31T09:42:23.781Z,8.50
2019-03-31T09:43:23.798Z,8.70
2019-03-31T09:44:23.821Z,8.40
2019-03-31T09:45:23.811Z,9.00
2019-03-31T09:46:23.822Z,9.00
2019-03-31T09:47:23.835Z,9.20
2019-03-31T09:48:23.841Z,8.80
2019-03-31T09:49:23.871Z,8.90
2019-03-31T09:50:23.869Z,9.20
2019-03-31T09:51:23.885Z,9.50
2019-03-31T09:52:23.897Z,9.30
2019-03-31T09:53:23.909Z,8.80
2019-03-31T09:54:23.923Z,8.80
2019-03-31T09:55:23.934Z,8.30
2019-03-31T09:56:23.945Z,8.00
2019-03-31T09:57:23.966Z,8.10
2019-03-31T09:58:23.972Z,8.40
2019-03-31T09:59:23.983Z,7.80
2019-03-31T10:00:23.995Z,7.90
2019-03-31T10:01:24.017Z,7.90
2019-03-31T10:02:24.027Z,7.50
2019-03-31T10:03:24.068Z,8.00
2019-03-31T10:04:24.044Z,7.50
2019-03-31T10:05:24.057Z,7.60
2019-03-31T10:06:30.003Z,7.00
2019-03-31T10:07:24.085Z,7.80
2019-03-31T10:09:24.401Z,7.30
2019-03-31T10:10:24.152Z,7.50
2019-03-31T10:11:24.142Z,7.60
2019-03-31T10:12:24.197Z,7.60
2019-03-31T10:13:24.214Z,7.80
2019-03-31T10:14:24.199Z,8.10
2019-03-31T10:15:24.215Z,7.80
2019-03-31T10:16:24.218Z,7.10
2019-03-31T10:17:24.213Z,7.40
2019-03-31T10:18:24.243Z,7.80
2019-03-31T10:19:24.236Z,7.70
2019-03-31T10:20:24.253Z,8.20
2019-03-31T10:21:24.260Z,7.30
2019-03-31T10:22:24.279Z,7.10
2019-03-31T10:23:24.288Z,7.60
2019-03-31T10:24:24.447Z,7.20
2019-03-31T10:25:24.320Z,7.50
2019-03-31T10:26:31.823Z,7.10
2019-03-31T10:27:24.341Z,7.30
2019-03-31T10:28:24.356Z,7.20
2019-03-31T10:29:24.366Z,7.50
2019-03-31T10:30:24.395Z,7.40
2019-03-31T10:31:24.390Z,6.60
2019-03-31T10:32:24.408Z,7.50
2019-03-31T10:33:24.413Z,9.90
2019-03-31T10:34:24.432Z,7.20
2019-03-31T10:35:24.519Z,7.30
2019-03-31T10:36:24.460Z,7.40
2019-03-31T10:37:24.467Z,7.60
2019-03-31T10:38:24.477Z,7.30
2019-03-31T10:39:24.769Z,7.70
2019-03-31T10:41:24.625Z,7.60
2019-03-31T10:42:24.537Z,7.40
2019-03-31T10:43:24.543Z,7.60
2019-03-31T10:44:24.556Z,7.80
2019-03-31T10:45:24.571Z,8.10
2019-03-31T10:46:24.584Z,7.50
2019-03-31T10:47:24.594Z,7.90
2019-03-31T10:48:24.607Z,7.90
2019-03-31T10:49:24.624Z,8.00
2019-03-31T10:50:24.630Z,7.70
2019-03-31T10:51:24.643Z,7.80
2019-03-31T10:52:24.657Z,7.90
2019-03-31T10:53:24.762Z,8.10
2019-03-31T10:54:24.689Z,7.90
2019-03-31T10:55:24.697Z,7.70
2019-03-31T10:56:24.721Z,8.80
2019-03-31T10:57:24.721Z,8.80
2019-03-31T10:58:24.741Z,9.10
2019-03-31T10:59:24.745Z,9.10
2019-03-31T11:00:24.762Z,9.50
2019-03-31T11:01:24.781Z,9.10
2019-03-31T11:02:24.785Z,9.60
2019-03-31T11:03:24.801Z,9.40
2019-03-31T11:04:24.814Z,9.30
2019-03-31T11:05:24.828Z,10.10
2019-03-31T11:06:24.891Z,8.90
2019-03-31T11:07:24.943Z,9.20
2019-03-31T11:08:24.860Z,9.40
2019-03-31T11:11:25.264Z,8.60
2019-03-31T11:13:26.402Z,9.10
2019-03-31T11:14:24.942Z,9.10
2019-03-31T11:15:24.958Z,9.00
2019-03-31T11:16:24.968Z,9.20
2019-03-31T11:17:25.026Z,9.30
2019-03-31T11:18:25.205Z,9.20
2019-03-31T11:19:25.031Z,9.40
2019-03-31T11:20:25.018Z,9.90
2019-03-31T11:21:25.035Z,10.80
2019-03-31T11:22:25.047Z,10.50
2019-03-31T11:23:25.054Z,10.20
2019-03-31T11:24:25.068Z,10.60
2019-03-31T11:25:29.092Z,10.20
2019-03-31T11:26:25.097Z,9.90
2019-03-31T11:27:25.108Z,10.00
2019-03-31T11:28:25.120Z,10.60
2019-03-31T11:29:25.143Z,10.90
2019-03-31T11:30:25.147Z,10.50
2019-03-31T11:31:25.166Z,10.40
2019-03-31T11:32:25.165Z,10.50
2019-03-31T11:33:25.180Z,10.80
2019-03-31T11:34:25.193Z,11.10
2019-03-31T11:35:25.211Z,11.20
2019-03-31T11:36:25.214Z,10.00
2019-03-31T11:38:25.256Z,9.90
2019-03-31T11:39:25.367Z,10.40
2019-03-31T11:40:25.281Z,10.30
2019-03-31T11:41:25.292Z,10.20
2019-03-31T11:42:25.799Z,10.20
2019-03-31T11:43:25.302Z,9.30
2019-03-31T11:44:27.830Z,9.90
2019-03-31T11:45:25.453Z,9.10
2019-03-31T11:46:25.368Z,8.20
2019-03-31T11:47:25.354Z,9.30
2019-03-31T11:48:25.361Z,8.50
2019-03-31T11:49:25.379Z,8.80
2019-03-31T11:50:25.386Z,8.40
2019-03-31T11:51:25.467Z,8.60
2019-03-31T11:52:25.433Z,8.30
2019-03-31T11:53:25.425Z,8.50
2019-03-31T11:54:25.499Z,7.80
2019-03-31T11:55:25.458Z,7.90
2019-03-31T11:56:25.462Z,8.50
2019-03-31T11:57:25.485Z,8.00
2019-03-31T11:58:25.490Z,7.50
2019-03-31T11:59:25.502Z,7.70
2019-03-31T12:00:25.517Z,7.10
2019-03-31T12:01:25.532Z,6.90
2019-03-31T12:02:27.252Z,6.20
2019-03-31T12:03:25.586Z,6.10
2019-03-31T12:04:25.572Z,6.30
2019-03-31T12:05:25.582Z,6.20
2019-03-31T12:06:25.590Z,6.50
2019-03-31T12:07:28.324Z,5.90
2019-03-31T12:08:25.921Z,6.30
2019-03-31T12:09:25.872Z,5.70
2019-03-31T12:10:26.083Z,5.70
2019-03-31T12:11:26.053Z,6.20
2019-03-31T12:12:25.912Z,6.10
2019-03-31T12:13:25.825Z,6.30
2019-03-31T12:14:25.723Z,5.80
2019-03-31T12:15:25.739Z,5.70
2019-03-31T12:16:25.827Z,5.40
2019-03-31T12:17:25.772Z,5.90
2019-03-31T12:18:25.772Z,5.40
2019-03-31T12:19:25.760Z,5.10
2019-03-31T12:20:25.802Z,4.90
2019-03-31T12:21:26.531Z,4.80
2019-03-31T12:22:25.850Z,5.40
2019-03-31T12:23:25.861Z,5.50
2019-03-31T12:24:25.840Z,5.40
2019-03-31T12:25:25.839Z,5.50
2019-03-31T12:26:25.854Z,5.70
2019-03-31T12:27:25.865Z,5.30
2019-03-31T12:28:25.890Z,5.60
2019-03-31T12:29:25.894Z,4.80
2019-03-31T12:30:25.946Z,5.00
2019-03-31T12:31:25.921Z,5.30
2019-03-31T12:32:25.955Z,5.20
2019-03-31T12:33:26.058Z,4.90
2019-03-31T12:34:26.011Z,4.90
2019-03-31T12:35:25.977Z,5.10
2019-03-31T12:36:26.239Z,4.60
2019-03-31T12:37:41.265Z,4.40
2019-03-31T12:38:26.027Z,4.40
2019-03-31T12:39:26.043Z,4.50
2019-03-31T12:40:26.041Z,3.90
2019-03-31T12:41:26.063Z,3.80
2019-03-31T12:42:26.079Z,3.80
2019-03-31T12:43:26.106Z,3.70
2019-03-31T12:44:26.117Z,3.90
2019-03-31T12:45:26.432Z,3.70
2019-03-31T12:46:26.184Z,3.80
2019-03-31T12:47:26.159Z,3.50
2019-03-31T12:48:26.155Z,3.90
2019-03-31T12:49:26.167Z,12.20
2019-03-31T12:50:26.186Z,4.20
2019-03-31T12:51:26.198Z,4.30
2019-03-31T12:52:26.208Z,4.40
2019-03-31T12:53:26.220Z,4.30
2019-03-31T12:54:26.236Z,4.30
2019-03-31T12:55:26.511Z,4.30
2019-03-31T12:56:26.312Z,4.20
2019-03-31T12:57:26.277Z,4.10
2019-03-31T12:58:26.298Z,3.90
2019-03-31T12:59:27.526Z,3.70
2019-03-31T13:00:26.336Z,4.20
2019-03-31T13:01:26.338Z,4.70
2019-03-31T13:02:26.351Z,4.30
2019-03-31T13:03:26.416Z,4.50
2019-03-31T13:04:26.381Z,4.10
2019-03-31T13:05:26.487Z,3.60
2019-03-31T13:06:26.408Z,3.50
2019-03-31T13:08:26.952Z,3.30
2019-03-31T13:09:26.766Z,3.80
2019-03-31T13:10:26.452Z,3.10
2019-03-31T13:11:26.463Z,3.00
2019-03-31T13:12:26.478Z,2.90
2019-03-31T13:13:26.504Z,3.00
2019-03-31T13:14:26.553Z,3.00
2019-03-31T13:15:26.550Z,2.90
2019-03-31T13:16:26.587Z,3.80
2019-03-31T13:17:26.552Z,2.80
2019-03-31T13:18:28.100Z,2.60